Time;durP1;ratioP1;P1;durP2;ratioP2;P2;SDS_P1;SDS_P2;PMS_P1;PMS_P2;Temp;Humidity;BMP_temperature;BMP_pressure;BME280_temperature;BME280_humidity;BME280_pressure;Samples;Min_cycle;Max_cycle;Signal;HPM_P1;HPM_P2
2022/07/12 00:02:08;;;;;;;4.63;3.38;;;;;;;;;;5325244;28;20724;-69
2022/07/12 00:04:39;;;;;;;5.88;3.30;;;;;;;;;;5324372;28;20020;-68
2022/07/12 00:07:10;;;;;;;4.85;3.60;;;;;;;;;;5324945;28;20019;-68
2022/07/12 00:09:41;;;;;;;4.22;3.03;;;;;;;;;;5325328;28;20390;-69
2022/07/12 00:12:13;;;;;;;4.88;3.30;;;;;;;;;;5324434;28;20004;-68
2022/07/12 00:14:45;;;;;;;4.65;2.90;;;;;;;;;;5325153;28;20378;-68
2022/07/12 00:17:16;;;;;;;6.43;2.95;;;;;;;;;;5324901;28;20023;-68
2022/07/12 00:19:47;;;;;;;3.17;2.80;;;;;;;;;;5323912;28;20482;-68
2022/07/12 00:22:18;;;;;;;6.38;2.88;;;;;;;;;;5324828;28;20047;-69
2022/07/12 00:24:49;;;;;;;3.08;2.58;;;;;;;;;;5325327;28;20265;-68
2022/07/12 00:27:20;;;;;;;4.72;2.83;;;;;;;;;;5323721;28;20352;-68
2022/07/12 00:29:52;;;;;;;4.33;2.50;;;;;;;;;;5324837;28;20019;-68
2022/07/12 00:32:23;;;;;;;6.20;2.30;;;;;;;;;;5324220;28;20262;-69
2022/07/12 00:34:54;;;;;;;4.10;2.20;;;;;;;;;;5324215;28;20297;-68
2022/07/12 00:37:25;;;;;;;3.70;2.43;;;;;;;;;;5324350;28;20602;-69
2022/07/12 00:39:57;;;;;;;4.15;2.65;;;;;;;;;;5324094;28;20327;-68
2022/07/12 00:42:28;;;;;;;5.07;2.60;;;;;;;;;;5323849;28;20027;-68
2022/07/12 00:44:59;;;;;;;3.80;2.83;;;;;;;;;;5323860;28;20020;-68
2022/07/12 00:47:38;;;;;;;11.25;2.53;;;;;;;;;;5323637;28;20356;-68
2022/07/12 00:50:19;;;;;;;6.00;2.45;;;;;;;;;;5324429;28;20012;-69
2022/07/12 00:52:52;;;;;;;2.20;2.00;;;;;;;;;;5324416;28;20422;-68
2022/07/12 00:55:23;;;;;;;5.30;2.50;;;;;;;;;;5323006;28;20015;-69
2022/07/12 00:57:54;;;;;;;5.18;2.45;;;;;;;;;;5324571;28;20371;-69
2022/07/12 01:00:28;;;;;;;5.10;2.53;;;;;;;;;;5323781;28;20023;-68
2022/07/12 01:03:01;;;;;;;4.72;2.42;;;;;;;;;;5323121;28;20435;-70
2022/07/12 01:05:32;;;;;;;5.45;2.00;;;;;;;;;;5323756;27;20019;-69
2022/07/12 01:08:03;;;;;;;6.38;2.30;;;;;;;;;;5323414;28;20015;-69
2022/07/12 01:10:36;;;;;;;4.85;2.28;;;;;;;;;;5324046;28;20015;-69
2022/07/12 01:13:07;;;;;;;4.22;1.80;;;;;;;;;;5323860;28;20026;-69
2022/07/12 01:15:40;;;;;;;5.60;1.70;;;;;;;;;;5323008;28;20012;-69
2022/07/12 01:18:11;;;;;;;2.42;2.22;;;;;;;;;;5323868;27;20098;-69
2022/07/12 01:20:43;;;;;;;2.78;2.05;;;;;;;;;;5323453;28;20131;-69
2022/07/12 01:23:14;;;;;;;2.47;1.80;;;;;;;;;;5322866;28;20382;-69
2022/07/12 01:25:45;;;;;;;5.10;2.17;;;;;;;;;;5323726;28;20016;-69
2022/07/12 01:28:16;;;;;;;2.95;2.30;;;;;;;;;;5323442;28;20041;-69
2022/07/12 01:30:48;;;;;;;5.00;2.40;;;;;;;;;;5322739;28;20023;-69
2022/07/12 01:33:19;;;;;;;3.42;1.88;;;;;;;;;;5323366;28;20318;-69
2022/07/12 01:35:50;;;;;;;2.47;2.20;;;;;;;;;;5323697;28;20019;-69
2022/07/12 01:38:21;;;;;;;3.28;2.05;;;;;;;;;;5322747;28;20060;-69
2022/07/12 01:40:52;;;;;;;4.27;2.07;;;;;;;;;;5323711;28;20845;-69
2022/07/12 01:43:24;;;;;;;5.03;2.13;;;;;;;;;;5322337;28;20685;-70
2022/07/12 01:45:55;;;;;;;2.60;2.10;;;;;;;;;;5323881;28;20125;-70
2022/07/12 01:48:26;;;;;;;2.58;2.17;;;;;;;;;;5322965;28;20271;-69
2022/07/12 01:50:57;;;;;;;4.70;1.98;;;;;;;;;;5322740;28;20019;-69
2022/07/12 01:53:28;;;;;;;3.07;2.13;;;;;;;;;;5322876;28;20039;-69
2022/07/12 01:55:59;;;;;;;3.55;2.28;;;;;;;;;;5323609;28;20311;-69
2022/07/12 01:58:31;;;;;;;2.47;1.90;;;;;;;;;;5322436;28;20265;-69
2022/07/12 02:01:02;;;;;;;4.40;2.17;;;;;;;;;;5323384;28;20744;-69
2022/07/12 02:03:35;;;;;;;3.42;1.80;;;;;;;;;;5322933;28;20024;-69
2022/07/12 02:06:06;;;;;;;3.05;1.50;;;;;;;;;;5322247;28;20015;-69
2022/07/12 02:08:40;;;;;;;2.30;1.60;;;;;;;;;;5323313;28;20777;-69
2022/07/12 02:11:11;;;;;;;4.90;2.15;;;;;;;;;;5322519;28;20482;-69
2022/07/12 02:13:43;;;;;;;3.28;1.65;;;;;;;;;;5323088;28;20047;-69
2022/07/12 02:16:14;;;;;;;3.33;2.03;;;;;;;;;;5322995;28;20020;-69
2022/07/12 02:18:45;;;;;;;5.17;1.80;;;;;;;;;;5322175;28;20111;-69
2022/07/12 02:21:16;;;;;;;5.25;1.83;;;;;;;;;;5322843;28;20380;-69
2022/07/12 02:23:47;;;;;;;2.53;1.50;;;;;;;;;;5322754;28;20310;-69
2022/07/12 02:26:19;;;;;;;2.67;1.58;;;;;;;;;;5321800;28;20038;-69
2022/07/12 02:28:51;;;;;;;1.88;1.48;;;;;;;;;;5323132;28;20266;-69
2022/07/12 02:31:22;;;;;;;4.32;2.10;;;;;;;;;;5322555;28;20091;-69
2022/07/12 02:33:53;;;;;;;5.28;2.15;;;;;;;;;;5322560;28;20447;-69
2022/07/12 02:36:25;;;;;;;2.47;1.77;;;;;;;;;;5322865;28;20043;-69
2022/07/12 02:38:56;;;;;;;4.25;1.58;;;;;;;;;;5323351;28;20334;-69
2022/07/12 02:41:27;;;;;;;5.32;2.03;;;;;;;;;;5321979;28;20024;-69
2022/07/12 02:43:59;;;;;;;2.72;2.30;;;;;;;;;;5323068;28;20514;-69
2022/07/12 02:46:30;;;;;;;3.83;2.08;;;;;;;;;;5321801;28;20008;-68
2022/07/12 02:49:01;;;;;;;2.92;2.00;;;;;;;;;;5322907;28;20480;-70
2022/07/12 02:51:33;;;;;;;3.00;1.88;;;;;;;;;;5322876;28;20019;-69
2022/07/12 02:54:04;;;;;;;5.40;2.10;;;;;;;;;;5321711;28;20065;-69
2022/07/12 02:56:35;;;;;;;3.20;1.70;;;;;;;;;;5322757;28;20289;-69
2022/07/12 02:59:06;;;;;;;2.70;2.13;;;;;;;;;;5322991;28;20341;-69
2022/07/12 03:01:37;;;;;;;2.47;2.28;;;;;;;;;;5321990;28;20394;-68
2022/07/12 03:04:08;;;;;;;4.18;2.25;;;;;;;;;;5322470;28;20469;-69
2022/07/12 03:06:40;;;;;;;3.33;2.60;;;;;;;;;;5323765;28;20740;-69
2022/07/12 03:09:11;;;;;;;3.53;2.60;;;;;;;;;;5326004;28;20300;-68
2022/07/12 03:11:42;;;;;;;4.68;2.60;;;;;;;;;;5326448;28;20019;-69
2022/07/12 03:14:13;;;;;;;3.83;2.57;;;;;;;;;;5326314;28;20257;-69
2022/07/12 03:16:45;;;;;;;4.45;3.60;;;;;;;;;;5325414;28;20273;-69
2022/07/12 03:19:16;;;;;;;4.50;2.90;;;;;;;;;;5325990;28;20026;-68
2022/07/12 03:21:47;;;;;;;3.95;3.38;;;;;;;;;;5324966;28;20055;-69
2022/07/12 03:24:18;;;;;;;3.42;2.90;;;;;;;;;;5325603;28;20039;-69
2022/07/12 03:26:51;;;;;;;3.10;2.80;;;;;;;;;;5326366;28;20090;-68
2022/07/12 03:29:23;;;;;;;3.58;3.13;;;;;;;;;;5324728;28;20293;-69
2022/07/12 03:31:54;;;;;;;5.03;3.25;;;;;;;;;;5326252;28;20098;-69
2022/07/12 03:34:25;;;;;;;3.30;3.00;;;;;;;;;;5325680;28;20149;-69
2022/07/12 03:36:56;;;;;;;3.60;3.25;;;;;;;;;;5325382;28;20270;-69
2022/07/12 03:39:28;;;;;;;3.50;3.20;;;;;;;;;;5325494;28;20024;-69
2022/07/12 03:41:59;;;;;;;3.30;2.63;;;;;;;;;;5325953;28;20380;-70
2022/07/12 03:44:30;;;;;;;3.38;3.08;;;;;;;;;;5325409;28;20020;-69
2022/07/12 03:47:01;;;;;;;3.78;2.63;;;;;;;;;;5325461;28;20020;-69
2022/07/12 03:49:32;;;;;;;3.63;3.33;;;;;;;;;;5325642;28;20374;-69
2022/07/12 03:52:04;;;;;;;3.95;3.65;;;;;;;;;;5324933;28;20080;-69
2022/07/12 03:54:35;;;;;;;3.75;3.45;;;;;;;;;;5325741;28;20298;-69
2022/07/12 03:57:15;;;;;;;3.57;3.10;;;;;;;;;;5324786;28;20064;-69
2022/07/12 03:59:47;;;;;;;3.15;2.72;;;;;;;;;;5325592;28;20601;-69
2022/07/12 04:02:18;;;;;;;3.55;2.60;;;;;;;;;;5325279;28;20088;-69
2022/07/12 04:04:49;;;;;;;3.97;3.67;;;;;;;;;;5324786;28;20159;-69
2022/07/12 04:07:21;;;;;;;6.28;4.45;;;;;;;;;;5325323;28;20119;-69
2022/07/12 04:09:52;;;;;;;4.97;4.00;;;;;;;;;;5325637;28;20011;-69
2022/07/12 04:12:23;;;;;;;5.15;4.75;;;;;;;;;;5324122;28;20026;-69
2022/07/12 04:14:55;;;;;;;4.97;4.50;;;;;;;;;;5325542;28;20046;-68
2022/07/12 04:17:26;;;;;;;4.72;4.15;;;;;;;;;;5324253;28;20285;-69
2022/07/12 04:19:57;;;;;;;5.05;2.35;;;;;;;;;;5323967;28;20126;-70
2022/07/12 04:22:28;;;;;;;4.90;3.50;;;;;;;;;;5324798;28;20478;-69
2022/07/12 04:24:59;;;;;;;3.25;3.05;;;;;;;;;;5324107;27;20022;-70
2022/07/12 04:27:31;;;;;;;3.85;3.55;;;;;;;;;;5324954;28;20020;-70
2022/07/12 04:30:02;;;;;;;3.63;3.30;;;;;;;;;;5324777;28;20349;-70
2022/07/12 04:32:33;;;;;;;3.83;3.38;;;;;;;;;;5324164;28;20051;-70
2022/07/12 04:35:05;;;;;;;3.07;2.73;;;;;;;;;;5324796;28;20019;-70
2022/07/12 04:37:36;;;;;;;5.10;2.97;;;;;;;;;;5324840;28;20277;-69
2022/07/12 04:40:07;;;;;;;4.10;3.70;;;;;;;;;;5323977;28;20019;-69
2022/07/12 04:42:39;;;;;;;4.50;3.60;;;;;;;;;;5324378;28;20384;-69
2022/07/12 04:45:10;;;;;;;3.65;3.35;;;;;;;;;;5324550;28;20559;-69
2022/07/12 04:47:41;;;;;;;3.40;3.05;;;;;;;;;;5323688;28;20015;-69
2022/07/12 04:50:12;;;;;;;3.90;3.20;;;;;;;;;;5324346;28;20375;-70
2022/07/12 04:52:43;;;;;;;16.05;3.72;;;;;;;;;;5324452;28;20352;-70
2022/07/12 04:55:14;;;;;;;23.95;4.68;;;;;;;;;;5323672;28;20273;-70
2022/07/12 04:57:46;;;;;;;9.50;3.35;;;;;;;;;;5324340;28;20046;-70
2022/07/12 05:00:17;;;;;;;12.82;3.28;;;;;;;;;;5323248;28;20338;-70
2022/07/12 05:02:48;;;;;;;6.78;3.00;;;;;;;;;;5324119;28;20731;-70
2022/07/12 05:05:19;;;;;;;11.13;3.10;;;;;;;;;;5323691;28;20046;-70
2022/07/12 05:07:50;;;;;;;12.73;3.10;;;;;;;;;;5323598;28;20401;-68
2022/07/12 05:10:21;;;;;;;14.07;2.90;;;;;;;;;;5323798;28;20272;-69
2022/07/12 05:12:53;;;;;;;15.93;3.87;;;;;;;;;;5324207;28;20271;-69
2022/07/12 05:15:24;;;;;;;14.43;3.65;;;;;;;;;;5322756;28;20280;-69
2022/07/12 05:17:55;;;;;;;9.00;3.53;;;;;;;;;;5324144;28;20265;-69
2022/07/12 05:20:26;;;;;;;6.70;3.47;;;;;;;;;;5323265;28;20296;-69
2022/07/12 05:22:57;;;;;;;9.60;3.30;;;;;;;;;;5323192;28;20335;-69
2022/07/12 05:25:28;;;;;;;9.48;3.80;;;;;;;;;;5323514;28;20024;-69
2022/07/12 05:27:59;;;;;;;4.90;3.33;;;;;;;;;;5323549;28;20020;-69
2022/07/12 05:30:31;;;;;;;6.32;4.00;;;;;;;;;;5322935;28;20813;-69
2022/07/12 05:33:02;;;;;;;3.95;3.65;;;;;;;;;;5323389;28;20272;-69
2022/07/12 05:35:33;;;;;;;6.47;3.25;;;;;;;;;;5322766;28;20012;-69
2022/07/12 05:38:05;;;;;;;4.03;3.50;;;;;;;;;;5323725;28;20362;-69
2022/07/12 05:40:36;;;;;;;3.53;3.07;;;;;;;;;;5323604;28;20145;-69
2022/07/12 05:43:07;;;;;;;5.57;3.88;;;;;;;;;;5322635;28;20313;-71
2022/07/12 05:45:40;;;;;;;6.18;4.80;;;;;;;;;;5323882;28;20022;-69
2022/07/12 05:48:12;;;;;;;4.97;4.57;;;;;;;;;;5323700;28;20019;-69
2022/07/12 05:50:43;;;;;;;5.07;4.57;;;;;;;;;;5322765;28;20077;-69
2022/07/12 05:53:23;;;;;;;5.22;4.35;;;;;;;;;;5323406;28;20051;-69
2022/07/12 05:55:54;;;;;;;5.88;5.28;;;;;;;;;;5324029;28;20269;-70
2022/07/12 05:58:25;;;;;;;7.80;4.57;;;;;;;;;;5322424;28;20050;-70
2022/07/12 06:00:57;;;;;;;6.85;6.20;;;;;;;;;;5323724;28;20706;-70
2022/07/12 06:03:28;;;;;;;6.45;5.82;;;;;;;;;;5322211;28;20656;-70
2022/07/12 06:05:59;;;;;;;7.97;5.90;;;;;;;;;;5323659;28;20112;-70
2022/07/12 06:08:31;;;;;;;6.15;5.63;;;;;;;;;;5323427;28;20284;-70
2022/07/12 06:11:02;;;;;;;9.88;6.68;;;;;;;;;;5322549;28;20011;-70
2022/07/12 06:13:33;;;;;;;6.05;5.45;;;;;;;;;;5323235;28;20378;-70
2022/07/12 06:16:10;;;;;;;7.28;5.25;;;;;;;;;;5323267;28;20625;-70
2022/07/12 06:18:41;;;;;;;7.95;7.15;;;;;;;;;;5322784;28;20098;-70
2022/07/12 06:21:12;;;;;;;6.80;6.15;;;;;;;;;;5323032;28;20114;-70
2022/07/12 06:23:43;;;;;;;7.13;6.43;;;;;;;;;;5323357;28;20294;-70
2022/07/12 06:26:14;;;;;;;5.72;5.20;;;;;;;;;;5322737;28;20265;-70
2022/07/12 06:28:45;;;;;;;6.00;5.47;;;;;;;;;;5323210;28;20085;-70
2022/07/12 06:31:17;;;;;;;6.65;6.15;;;;;;;;;;5323465;28;20271;-70
2022/07/12 06:33:48;;;;;;;8.00;7.35;;;;;;;;;;5322447;28;20061;-70
2022/07/12 06:36:19;;;;;;;7.80;6.57;;;;;;;;;;5322922;28;20011;-70
2022/07/12 06:38:51;;;;;;;6.97;6.38;;;;;;;;;;5322714;28;20094;-68
2022/07/12 06:41:22;;;;;;;7.20;6.60;;;;;;;;;;5323449;28;20022;-70
2022/07/12 06:43:53;;;;;;;7.07;6.37;;;;;;;;;;5327842;28;20484;-69
2022/07/12 06:46:24;;;;;;;8.32;6.85;;;;;;;;;;5326046;28;20322;-69
2022/07/12 06:48:55;;;;;;;7.03;6.38;;;;;;;;;;5327349;28;20382;-68
2022/07/12 06:51:26;;;;;;;7.35;6.50;;;;;;;;;;5326798;28;20265;-69
2022/07/12 06:53:57;;;;;;;8.75;6.30;;;;;;;;;;5326642;28;20070;-70
2022/07/12 06:56:29;;;;;;;7.53;6.82;;;;;;;;;;5326966;28;20011;-71
2022/07/12 06:59:00;;;;;;;8.50;7.65;;;;;;;;;;5327113;28;20047;-69
2022/07/12 07:01:31;;;;;;;8.73;6.68;;;;;;;;;;5326257;28;20253;-69
2022/07/12 07:04:02;;;;;;;11.57;6.90;;;;;;;;;;5326695;28;20031;-69
2022/07/12 07:06:34;;;;;;;13.35;7.25;;;;;;;;;;5321346;28;20702;-68
2022/07/12 07:09:08;;;;;;;9.93;7.35;;;;;;;;;;5325813;28;20050;-70
2022/07/12 07:11:39;;;;;;;9.70;6.90;;;;;;;;;;5325970;28;20106;-70
2022/07/12 07:14:10;;;;;;;12.80;6.83;;;;;;;;;;5325263;28;20542;-70
2022/07/12 07:16:42;;;;;;;7.53;6.22;;;;;;;;;;5326464;28;20661;-70
2022/07/12 07:19:13;;;;;;;7.80;6.07;;;;;;;;;;5326598;28;20128;-70
2022/07/12 07:21:44;;;;;;;8.30;6.15;;;;;;;;;;5325097;28;20376;-70
2022/07/12 07:24:15;;;;;;;8.63;4.65;;;;;;;;;;5326070;28;20393;-70
2022/07/12 07:26:47;;;;;;;4.23;3.10;;;;;;;;;;5326368;28;20616;-70
2022/07/12 07:32:08;;;;;;;6.70;3.30;;;;;;;;;;5326649;28;20106;-70
2022/07/12 07:34:39;;;;;;;4.20;2.10;;;;;;;;;;5325800;28;20091;-71
2022/07/12 07:37:11;;;;;;;2.53;2.03;;;;;;;;;;5325881;28;20015;-70
2022/07/12 07:39:42;;;;;;;4.55;2.53;;;;;;;;;;5326391;27;20105;-70
2022/07/12 07:42:13;;;;;;;6.40;2.73;;;;;;;;;;5325386;28;20023;-70
2022/07/12 07:44:44;;;;;;;1.90;1.50;;;;;;;;;;5326224;28;20361;-70
2022/07/12 07:47:15;;;;;;;3.22;1.20;;;;;;;;;;5326065;28;20077;-70
2022/07/12 07:49:46;;;;;;;6.63;1.30;;;;;;;;;;5325091;28;20355;-70
2022/07/12 07:52:18;;;;;;;2.80;1.00;;;;;;;;;;5326086;28;20371;-70
2022/07/12 07:54:49;;;;;;;2.92;1.17;;;;;;;;;;5307981;28;20016;-70
2022/07/12 07:57:20;;;;;;;3.63;1.10;;;;;;;;;;5315754;28;20047;-70
2022/07/12 07:59:51;;;;;;;4.97;1.38;;;;;;;;;;5324808;28;20089;-71
2022/07/12 08:02:22;;;;;;;2.00;0.90;;;;;;;;;;5324096;28;20035;-70
2022/07/12 08:04:53;;;;;;;2.75;1.00;;;;;;;;;;5324387;28;20019;-70
2022/07/12 08:07:24;;;;;;;3.37;1.30;;;;;;;;;;5324545;28;20026;-70
2022/07/12 08:09:56;;;;;;;3.53;1.20;;;;;;;;;;5323916;28;20020;-70
2022/07/12 08:12:27;;;;;;;3.38;1.63;;;;;;;;;;5324050;28;20032;-69
2022/07/12 08:14:58;;;;;;;2.92;1.20;;;;;;;;;;5324671;28;20371;-70
2022/07/12 08:17:30;;;;;;;2.92;1.15;;;;;;;;;;5324021;28;20374;-70
2022/07/12 08:20:01;;;;;;;2.93;1.53;;;;;;;;;;5324535;28;20058;-70
2022/07/12 08:22:32;;;;;;;4.33;1.57;;;;;;;;;;5324607;28;20759;-70
2022/07/12 08:25:03;;;;;;;2.80;1.75;;;;;;;;;;5324781;28;20265;-70
2022/07/12 08:27:35;;;;;;;2.90;1.95;;;;;;;;;;5325570;28;20026;-70
2022/07/12 08:30:06;;;;;;;4.43;2.13;;;;;;;;;;5325032;28;20023;-70
2022/07/12 08:32:42;;;;;;;2.22;1.38;;;;;;;;;;5324149;28;20119;-70
2022/07/12 08:35:14;;;;;;;4.68;1.80;;;;;;;;;;5324885;28;20023;-70
2022/07/12 08:37:45;;;;;;;2.25;1.98;;;;;;;;;;5324888;28;20476;-71
2022/07/12 08:40:16;;;;;;;3.03;2.20;;;;;;;;;;5324288;28;20092;-71
2022/07/12 08:42:47;;;;;;;5.32;1.70;;;;;;;;;;5324862;28;20051;-70
2022/07/12 08:45:19;;;;;;;3.05;1.10;;;;;;;;;;5323445;28;20093;-71
2022/07/12 08:47:50;;;;;;;2.70;1.38;;;;;;;;;;5324905;28;20479;-71
2022/07/12 08:50:23;;;;;;;1.60;1.40;;;;;;;;;;5324288;28;20434;-77
2022/07/12 08:52:55;;;;;;;1.55;1.13;;;;;;;;;;5324339;28;20015;-74
2022/07/12 08:55:28;;;;;;;2.88;1.15;;;;;;;;;;5324293;28;20040;-71
2022/07/12 08:58:03;;;;;;;3.85;1.35;;;;;;;;;;5324755;28;20020;-72
2022/07/12 09:00:34;;;;;;;2.28;1.08;;;;;;;;;;5323324;28;20024;-71
2022/07/12 09:03:06;;;;;;;3.88;1.23;;;;;;;;;;5324049;28;20028;-72
2022/07/12 09:05:38;;;;;;;2.50;1.23;;;;;;;;;;5323338;28;20310;-71
2022/07/12 09:08:10;;;;;;;4.03;0.90;;;;;;;;;;5323637;28;20423;-71
2022/07/12 09:10:50;;;;;;;2.05;1.00;;;;;;;;;;5324259;28;20019;-72
2022/07/12 09:13:41;;;;;;;2.35;0.90;;;;;;;;;;5323064;28;20026;-72
2022/07/12 09:16:16;;;;;;;3.53;1.15;;;;;;;;;;5324248;28;20024;-72
2022/07/12 09:18:47;;;;;;;2.25;1.20;;;;;;;;;;5324055;28;20068;-71
2022/07/12 09:21:23;;;;;;;2.22;0.80;;;;;;;;;;5322872;28;20461;-73
2022/07/12 09:23:55;;;;;;;4.15;0.70;;;;;;;;;;5324459;28;20024;-72
2022/07/12 09:26:30;;;;;;;1.27;0.75;;;;;;;;;;5323917;28;20015;-72
2022/07/12 09:29:05;;;;;;;3.20;1.08;;;;;;;;;;5323512;28;20153;-72
2022/07/12 09:31:40;;;;;;;1.63;0.70;;;;;;;;;;5324020;28;20035;-72
2022/07/12 09:37:01;;;;;;;1.98;0.85;;;;;;;;;;5324282;28;20035;-73
2022/07/12 09:39:32;;;;;;;3.30;0.73;;;;;;;;;;5323679;28;20458;-72
2022/07/12 09:42:03;;;;;;;2.57;0.90;;;;;;;;;;5323136;28;20462;-70
2022/07/12 09:44:35;;;;;;;2.83;1.00;;;;;;;;;;5323531;28;20114;-72
2022/07/12 09:47:09;;;;;;;3.80;0.67;;;;;;;;;;5323572;28;20382;-73
2022/07/12 09:49:40;;;;;;;1.55;0.73;;;;;;;;;;5323226;28;20760;-72
2022/07/12 09:52:15;;;;;;;1.50;0.70;;;;;;;;;;5323475;28;20023;-72
2022/07/12 09:54:48;;;;;;;1.85;0.50;;;;;;;;;;5323539;28;20103;-72
2022/07/12 09:57:21;;;;;;;1.80;0.50;;;;;;;;;;5322690;28;20028;-72
2022/07/12 09:59:52;;;;;;;3.95;0.50;;;;;;;;;;5323724;28;20020;-72
2022/07/12 10:02:23;;;;;;;1.33;0.80;;;;;;;;;;5322593;28;20494;-73
2022/07/12 10:04:55;;;;;;;2.50;0.60;;;;;;;;;;5323761;28;20028;-72
2022/07/12 10:07:26;;;;;;;1.65;0.50;;;;;;;;;;5323282;28;20652;-72
2022/07/12 10:09:57;;;;;;;3.00;0.40;;;;;;;;;;5323103;28;20019;-72
2022/07/12 10:12:29;;;;;;;1.33;0.60;;;;;;;;;;5323263;28;20023;-72
2022/07/12 10:15:02;;;;;;;1.00;0.50;;;;;;;;;;5323149;28;20026;-72
2022/07/12 10:17:33;;;;;;;2.17;0.60;;;;;;;;;;5325824;28;20016;-73
2022/07/12 10:20:31;;;;;;;4.40;0.68;;;;;;;;;;5327614;28;20048;-73
2022/07/12 10:23:02;;;;;;;;;;;;;;;;;;5305461;28;20395;-73
2022/07/12 10:25:34;;;;;;;2.60;0.60;;;;;;;;;;5305319;28;19904;-71
2022/07/12 10:28:05;;;;;;;1.00;0.50;;;;;;;;;;5305962;28;20012;-71
2022/07/12 10:30:45;;;;;;;3.97;0.50;;;;;;;;;;5304973;28;20028;-71
2022/07/12 10:33:17;;;;;;;2.03;0.70;;;;;;;;;;5306208;28;20050;-70
2022/07/12 10:35:59;;;;;;;3.08;1.20;;;;;;;;;;5306127;28;20512;-71
2022/07/12 10:38:30;;;;;;;2.45;0.68;;;;;;;;;;5304857;28;20020;-70
2022/07/12 10:41:15;;;;;;;4.20;0.90;;;;;;;;;;5305949;28;20482;-71
2022/07/12 10:44:04;;;;;;;4.72;0.90;;;;;;;;;;5306145;28;20425;-71
2022/07/12 10:46:37;;;;;;;2.55;0.60;;;;;;;;;;5305174;28;20012;-71
2022/07/12 10:49:27;;;;;;;2.97;0.70;;;;;;;;;;5305641;28;20016;-71
2022/07/12 10:52:11;;;;;;;2.58;0.70;;;;;;;;;;5305467;28;20111;-73
2022/07/12 10:54:54;;;;;;;4.03;0.90;;;;;;;;;;5305796;28;20386;-73
2022/07/12 10:57:38;;;;;;;5.00;0.90;;;;;;;;;;5305550;28;20024;-74
2022/07/12 11:00:13;;;;;;;1.30;0.70;;;;;;;;;;5305153;28;20459;-73
2022/07/12 11:02:44;;;;;;;1.60;0.70;;;;;;;;;;5305770;28;20498;-73
2022/07/12 11:05:15;;;;;;;2.60;0.50;;;;;;;;;;5305529;28;20039;-74
2022/07/12 11:07:47;;;;;;;5.53;0.73;;;;;;;;;;5304585;28;20688;-73
2022/07/12 11:10:19;;;;;;;0.95;0.50;;;;;;;;;;5305449;28;20274;-74
2022/07/12 11:12:50;;;;;;;1.38;0.60;;;;;;;;;;5305045;28;20089;-74
2022/07/12 11:15:22;;;;;;;1.27;0.67;;;;;;;;;;5305204;28;20016;-73
2022/07/12 11:17:53;;;;;;;3.13;0.70;;;;;;;;;;5305559;28;20354;-73
2022/07/12 11:20:27;;;;;;;3.80;0.67;;;;;;;;;;5304060;28;20372;-70
2022/07/12 11:22:59;;;;;;;3.33;0.50;;;;;;;;;;5305698;28;20077;-72
2022/07/12 11:25:30;;;;;;;1.60;0.60;;;;;;;;;;5305421;28;20028;-73
2022/07/12 11:28:01;;;;;;;4.80;0.60;;;;;;;;;;5303610;28;20061;-72
2022/07/12 11:30:33;;;;;;;1.75;0.50;;;;;;;;;;5305060;28;20378;-73
2022/07/12 11:33:04;;;;;;;6.05;0.75;;;;;;;;;;5304920;28;20431;-73
2022/07/12 11:35:35;;;;;;;1.93;0.50;;;;;;;;;;5304406;28;20375;-73
2022/07/12 11:38:06;;;;;;;2.20;0.80;;;;;;;;;;5304937;28;20054;-73
2022/07/12 11:40:37;;;;;;;3.30;0.80;;;;;;;;;;5304697;28;20020;-73
2022/07/12 11:43:09;;;;;;;2.93;0.70;;;;;;;;;;5304321;28;20038;-73
2022/07/12 11:45:41;;;;;;;1.60;0.90;;;;;;;;;;5305050;28;20761;-72
2022/07/12 11:48:12;;;;;;;1.30;0.70;;;;;;;;;;5303957;28;20135;-73
2022/07/12 11:50:47;;;;;;;2.70;1.00;;;;;;;;;;5304699;28;20093;-72
2022/07/12 11:53:19;;;;;;;3.78;0.80;;;;;;;;;;5304530;28;20379;-72
2022/07/12 11:55:52;;;;;;;2.28;0.60;;;;;;;;;;5303957;28;20418;-73
2022/07/12 11:58:24;;;;;;;2.03;0.60;;;;;;;;;;5304467;28;20020;-73
2022/07/12 12:00:56;;;;;;;1.83;0.60;;;;;;;;;;5304826;28;20027;-73
2022/07/12 12:03:27;;;;;;;1.98;0.50;;;;;;;;;;5303220;28;20059;-73
2022/07/12 12:05:58;;;;;;;2.55;0.70;;;;;;;;;;5304333;28;20016;-73
2022/07/12 12:08:29;;;;;;;3.10;0.60;;;;;;;;;;5304048;28;20355;-72
2022/07/12 12:11:01;;;;;;;2.17;0.50;;;;;;;;;;5303432;28;20269;-72
2022/07/12 12:13:32;;;;;;;3.40;0.70;;;;;;;;;;5304200;28;20064;-72
2022/07/12 12:16:04;;;;;;;3.10;0.90;;;;;;;;;;5303337;28;20020;-72
2022/07/12 12:18:39;;;;;;;3.35;0.60;;;;;;;;;;5303606;28;20296;-72
2022/07/12 12:21:11;;;;;;;1.35;0.70;;;;;;;;;;5302628;28;20044;-72
2022/07/12 12:23:42;;;;;;;1.83;0.50;;;;;;;;;;5302243;28;20299;-72
2022/07/12 12:26:23;;;;;;;4.75;0.50;;;;;;;;;;5302789;28;20097;-72
2022/07/12 12:28:54;;;;;;;1.65;0.70;;;;;;;;;;5303277;28;20031;-72
2022/07/12 12:31:25;;;;;;;1.48;0.60;;;;;;;;;;5302322;28;20020;-72
2022/07/12 12:33:57;;;;;;;2.43;0.63;;;;;;;;;;5303633;28;20016;-72
2022/07/12 12:36:29;;;;;;;3.90;0.50;;;;;;;;;;5303168;28;20023;-72
2022/07/12 12:39:00;;;;;;;2.17;0.40;;;;;;;;;;5302163;28;20258;-72
2022/07/12 12:41:38;;;;;;;3.72;0.45;;;;;;;;;;5303546;28;20032;-72
2022/07/12 12:44:12;;;;;;;3.33;0.50;;;;;;;;;;5303014;28;20031;-72
2022/07/12 12:46:53;;;;;;;2.53;0.50;;;;;;;;;;5303710;28;20044;-72
2022/07/12 12:49:43;;;;;;;5.10;0.60;;;;;;;;;;5303244;28;20498;-71
2022/07/12 12:52:14;;;;;;;2.72;0.60;;;;;;;;;;5302512;28;20069;-73
2022/07/12 12:54:45;;;;;;;1.87;0.50;;;;;;;;;;5303657;28;20024;-70
2022/07/12 12:57:16;;;;;;;2.33;0.50;;;;;;;;;;5303352;28;20300;-70
2022/07/12 12:59:48;;;;;;;2.10;0.50;;;;;;;;;;5302507;28;20272;-71
2022/07/12 13:02:20;;;;;;;2.92;0.60;;;;;;;;;;5301657;28;20296;-70
2022/07/12 13:04:51;;;;;;;2.28;0.52;;;;;;;;;;5303611;28;20103;-70
2022/07/12 13:07:22;;;;;;;7.20;0.70;;;;;;;;;;5301915;28;20087;-71
2022/07/12 13:09:53;;;;;;;2.63;0.50;;;;;;;;;;5303947;28;20046;-70
2022/07/12 13:12:25;;;;;;;3.47;0.70;;;;;;;;;;5302032;28;20012;-69
2022/07/12 13:14:56;;;;;;;2.42;0.90;;;;;;;;;;5302390;28;20027;-70
2022/07/12 13:17:27;;;;;;;5.22;0.80;;;;;;;;;;5301679;28;20012;-70
2022/07/12 13:19:58;;;;;;;5.15;0.80;;;;;;;;;;5302704;28;20128;-69
2022/07/12 13:22:30;;;;;;;5.07;0.70;;;;;;;;;;5302572;28;20031;-69
2022/07/12 13:25:01;;;;;;;3.40;0.70;;;;;;;;;;5302722;28;20065;-70
2022/07/12 13:27:33;;;;;;;6.38;0.90;;;;;;;;;;5302361;28;20023;-70
2022/07/12 13:30:07;;;;;;;5.10;0.60;;;;;;;;;;5302920;28;20012;-70
2022/07/12 13:32:38;;;;;;;6.30;0.85;;;;;;;;;;5302169;28;20392;-70
2022/07/12 13:35:10;;;;;;;6.40;0.90;;;;;;;;;;5301890;28;20534;-69
2022/07/12 13:37:42;;;;;;;4.05;1.10;;;;;;;;;;5302473;28;20020;-69
2022/07/12 13:40:14;;;;;;;4.20;1.27;;;;;;;;;;5302729;28;20023;-70
2022/07/12 13:42:50;;;;;;;4.75;1.10;;;;;;;;;;5301959;28;20107;-70
2022/07/12 13:45:23;;;;;;;4.05;1.27;;;;;;;;;;5302342;28;20020;-70
2022/07/12 13:47:54;;;;;;;4.68;1.20;;;;;;;;;;5301904;28;20439;-70
2022/07/12 13:50:25;;;;;;;4.63;1.30;;;;;;;;;;5301776;28;20095;-69
2022/07/12 13:52:58;;;;;;;3.40;1.03;;;;;;;;;;5302830;28;20020;-70
2022/07/12 13:55:31;;;;;;;3.92;0.98;;;;;;;;;;5301389;28;20046;-70
2022/07/12 13:58:03;;;;;;;3.90;0.93;;;;;;;;;;5302294;28;20031;-72
2022/07/12 14:00:34;;;;;;;8.48;1.20;;;;;;;;;;5302224;28;20016;-70
2022/07/12 14:03:05;;;;;;;3.13;0.88;;;;;;;;;;5301635;28;20038;-71
2022/07/12 14:05:37;;;;;;;3.72;1.00;;;;;;;;;;5302051;28;20099;-70
2022/07/12 14:08:08;;;;;;;3.85;0.90;;;;;;;;;;5302220;28;20023;-70
2022/07/12 14:10:39;;;;;;;9.13;2.33;;;;;;;;;;5301199;28;20398;-70
2022/07/12 14:13:10;;;;;;;3.47;1.90;;;;;;;;;;5301917;28;20031;-70
2022/07/12 14:15:43;;;;;;;3.40;1.03;;;;;;;;;;5301441;28;20016;-70
2022/07/12 14:18:15;;;;;;;2.60;0.90;;;;;;;;;;5301998;28;20187;-70
2022/07/12 14:20:46;;;;;;;3.40;1.10;;;;;;;;;;5301811;28;20143;-70
2022/07/12 14:23:18;;;;;;;4.20;0.88;;;;;;;;;;5300976;28;20632;-70
2022/07/12 14:25:49;;;;;;;3.85;1.00;;;;;;;;;;5302110;28;20040;-69
2022/07/12 14:28:20;;;;;;;2.53;0.70;;;;;;;;;;5301893;28;20027;-71
2022/07/12 14:30:51;;;;;;;3.17;1.00;;;;;;;;;;5301200;28;20020;-70
2022/07/12 14:33:22;;;;;;;4.33;0.77;;;;;;;;;;5301566;28;20028;-71
2022/07/12 14:35:54;;;;;;;2.53;0.67;;;;;;;;;;5301826;28;20070;-71
2022/07/12 14:38:25;;;;;;;3.55;0.70;;;;;;;;;;5301074;28;20013;-70
2022/07/12 14:40:57;;;;;;;3.60;0.77;;;;;;;;;;5302033;28;20016;-70
2022/07/12 14:43:28;;;;;;;5.25;0.82;;;;;;;;;;5301362;28;20796;-70
2022/07/12 14:45:59;;;;;;;1.58;0.70;;;;;;;;;;5300984;28;20489;-70
2022/07/12 14:48:30;;;;;;;1.77;0.88;;;;;;;;;;5301485;28;20355;-71
2022/07/12 14:51:01;;;;;;;3.40;0.70;;;;;;;;;;5301072;28;20808;-71
2022/07/12 14:53:33;;;;;;;3.50;0.87;;;;;;;;;;5301848;28;20032;-71
2022/07/12 14:56:04;;;;;;;3.25;0.70;;;;;;;;;;5301821;28;20650;-70
2022/07/12 14:58:35;;;;;;;3.03;0.73;;;;;;;;;;5307005;28;20103;-76
2022/07/12 15:01:07;;;;;;;4.57;0.70;;;;;;;;;;5306884;28;20035;-73
2022/07/12 15:03:38;;;;;;;5.68;0.70;;;;;;;;;;5309287;28;20036;-71
2022/07/12 15:06:09;;;;;;;2.57;0.70;;;;;;;;;;5304812;28;20115;-71
2022/07/12 15:08:40;;;;;;;2.38;0.60;;;;;;;;;;5305460;28;20076;-71
2022/07/12 15:11:12;;;;;;;4.17;0.70;;;;;;;;;;5305365;28;20027;-71
2022/07/12 15:13:43;;;;;;;2.70;0.88;;;;;;;;;;5309347;28;20058;-72
2022/07/12 15:16:14;;;;;;;1.73;0.85;;;;;;;;;;5326770;28;20015;-71
2022/07/12 15:18:45;;;;;;;4.97;0.80;;;;;;;;;;5326340;28;20024;-71